createdAt,value
2023-05-01T00:01:12.133Z,100474.53
2023-05-01T00:04:14.968Z,100460.47
2023-05-01T00:07:17.765Z,100484.28
2023-05-01T00:10:20.441Z,100483.28
2023-05-01T00:13:24.572Z,100460.66
2023-05-01T00:16:27.142Z,100482.06
2023-05-01T00:19:29.871Z,100463.34
2023-05-01T00:22:32.547Z,100478.25
2023-05-01T00:25:35.177Z,100482.09
2023-05-01T00:28:37.694Z,100484.72
2023-05-01T00:31:42.447Z,100482.25
2023-05-01T00:34:47.929Z,100452.50
2023-05-01T00:37:50.866Z,100476.13
2023-05-01T00:40:53.548Z,100484.66
2023-05-01T00:43:56.640Z,100472.75
2023-05-01T00:47:01.073Z,100481.47
2023-05-01T00:50:05.311Z,100448.22
2023-05-01T00:53:07.971Z,100483.41
2023-05-01T00:56:11.716Z,100480.50
2023-05-01T00:59:14.760Z,100485.59
2023-05-01T01:02:17.464Z,100488.00
2023-05-01T01:05:21.992Z,100480.03
2023-05-01T01:08:33.735Z,100481.03
2023-05-01T01:11:51.837Z,100481.75
2023-05-01T01:15:21.605Z,100491.53
2023-05-01T01:18:33.305Z,100485.41
2023-05-01T01:21:41.448Z,100490.44
2023-05-01T01:24:59.606Z,100488.34
2023-05-01T01:28:25.012Z,100488.34
2023-05-01T01:31:33.462Z,100488.69
2023-05-01T01:34:50.656Z,100482.31
2023-05-01T01:38:09.774Z,100486.50
2023-05-01T01:41:22.518Z,100493.22
2023-05-01T01:44:34.911Z,100490.97
2023-05-01T01:47:41.209Z,100487.63
2023-05-01T01:50:45.683Z,100486.84
2023-05-01T01:53:52.242Z,100489.50
2023-05-01T01:56:55.861Z,100480.94
2023-05-01T01:59:58.899Z,100482.13
2023-05-01T02:03:02.469Z,100467.44
2023-05-01T02:06:06.111Z,100485.09
2023-05-01T02:09:10.025Z,100481.69
2023-05-01T02:12:14.418Z,100457.00
2023-05-01T02:15:19.193Z,100479.44
2023-05-01T02:18:22.341Z,100468.47
2023-05-01T02:21:26.581Z,100480.28
2023-05-01T02:24:31.158Z,100461.59
2023-05-01T02:27:39.020Z,100454.31
2023-05-01T02:30:41.802Z,100475.56
2023-05-01T02:33:44.423Z,100468.59
2023-05-01T02:36:47.442Z,100460.31
2023-05-01T02:39:50.913Z,100472.16
2023-05-01T02:42:53.548Z,100476.53
2023-05-01T02:45:59.164Z,100482.13
2023-05-01T02:49:03.428Z,100465.50
2023-05-01T02:52:06.276Z,100463.94
2023-05-01T02:55:09.448Z,100484.47
2023-05-01T02:58:16.662Z,100459.97
2023-05-01T03:01:19.837Z,100478.75
2023-05-01T03:04:22.776Z,100474.84
2023-05-01T03:07:25.460Z,100456.63
2023-05-01T03:10:28.082Z,100482.28
2023-05-01T03:13:31.089Z,100469.72
2023-05-01T03:16:34.143Z,100489.47
2023-05-01T03:19:37.584Z,100456.84
2023-05-01T03:22:40.274Z,100478.84
2023-05-01T03:25:42.885Z,100483.09
2023-05-01T03:28:45.987Z,100480.78
2023-05-01T03:31:48.964Z,100499.88
2023-05-01T03:34:51.795Z,100492.34
2023-05-01T03:37:56.591Z,100477.47
2023-05-01T03:41:19.277Z,100499.03
2023-05-01T03:44:21.949Z,100500.34
2023-05-01T03:47:25.012Z,100495.38
2023-05-01T03:50:27.667Z,100492.66
2023-05-01T03:53:30.283Z,100499.88
2023-05-01T03:56:35.888Z,100500.31
2023-05-01T03:59:40.312Z,100503.16
2023-05-01T04:02:43.252Z,100499.59
2023-05-01T04:05:49.869Z,100478.47
2023-05-01T04:08:52.421Z,100484.19
2023-05-01T04:11:55.054Z,100496.03
2023-05-01T04:14:57.679Z,100502.19
2023-05-01T04:18:00.877Z,100492.00
2023-05-01T04:21:03.856Z,100493.44
2023-05-01T04:24:06.543Z,100493.25
2023-05-01T04:27:09.472Z,100505.50
2023-05-01T04:30:12.075Z,100504.19
2023-05-01T04:33:14.680Z,100508.28
2023-05-01T04:36:17.370Z,100499.88
2023-05-01T04:39:20.986Z,100495.22
2023-05-01T04:42:23.578Z,100498.41
2023-05-01T04:45:26.667Z,100510.38
2023-05-01T04:48:30.014Z,100518.88
2023-05-01T04:51:32.762Z,100509.00
2023-05-01T04:54:35.399Z,100506.50
2023-05-01T04:57:38.028Z,100522.09
2023-05-01T05:00:42.847Z,100525.59
2023-05-01T05:03:50.536Z,100522.13
2023-05-01T05:06:53.539Z,100517.69
2023-05-01T05:10:03.653Z,100514.09
2023-05-01T05:13:06.791Z,100512.31
2023-05-01T05:16:09.745Z,100523.25
2023-05-01T05:19:12.418Z,100530.31
2023-05-01T05:22:17.774Z,100522.38
2023-05-01T05:25:40.255Z,100531.47
2023-05-01T05:28:43.004Z,100490.81
2023-05-01T05:31:45.675Z,100519.34
2023-05-01T05:34:48.468Z,100525.03
2023-05-01T05:37:51.447Z,100518.56
2023-05-01T05:40:55.275Z,100546.44
2023-05-01T05:43:58.537Z,100537.13
2023-05-01T05:47:01.330Z,100549.66
2023-05-01T05:50:10.121Z,100554.47
2023-05-01T05:53:13.999Z,100553.56
2023-05-01T05:56:18.465Z,100552.88
2023-05-01T05:59:21.634Z,100552.56
2023-05-01T06:02:24.408Z,100554.91
2023-05-01T06:05:27.887Z,100510.44
2023-05-01T06:08:30.506Z,100565.16
2023-05-01T06:11:33.063Z,100557.25
2023-05-01T06:14:35.967Z,100548.19
2023-05-01T06:17:38.685Z,100547.03
2023-05-01T06:20:41.444Z,100559.47
2023-05-01T06:23:44.064Z,100562.97
2023-05-01T06:27:02.368Z,100543.78
2023-05-01T06:30:05.689Z,100560.41
2023-05-01T06:33:10.735Z,100565.28
2023-05-01T06:36:14.765Z,100526.84
2023-05-01T06:39:17.307Z,100516.16
2023-05-01T06:42:21.645Z,100568.50
2023-05-01T06:45:24.225Z,100548.16
2023-05-01T06:48:26.851Z,100569.19
2023-05-01T06:51:30.459Z,100568.69
2023-05-01T06:54:33.129Z,100576.09
2023-05-01T06:57:35.812Z,100574.59
2023-05-01T07:00:38.555Z,100562.22
2023-05-01T07:03:41.353Z,100568.09
2023-05-01T07:06:44.025Z,100550.69
2023-05-01T07:09:46.557Z,100564.81
2023-05-01T07:12:49.180Z,100556.22
2023-05-01T07:15:53.823Z,100559.50
2023-05-01T07:18:57.397Z,100560.38
2023-05-01T07:21:59.968Z,100547.75
2023-05-01T07:25:03.690Z,100556.59
2023-05-01T07:28:08.295Z,100558.38
2023-05-01T07:31:11.041Z,100556.41
2023-05-01T07:34:14.181Z,100538.38
2023-05-01T07:37:16.923Z,100562.91
2023-05-01T07:40:19.590Z,100520.97
2023-05-01T07:43:22.366Z,100544.22
2023-05-01T07:46:25.175Z,100557.47
2023-05-01T07:49:27.848Z,100533.97
2023-05-01T07:52:31.797Z,100535.78
2023-05-01T07:55:34.431Z,100527.94
2023-05-01T07:58:37.783Z,100567.03
2023-05-01T08:01:41.406Z,100572.06
2023-05-01T08:04:44.067Z,100565.16
2023-05-01T08:07:46.735Z,100566.38
2023-05-01T08:10:49.326Z,100546.34
2023-05-01T08:13:52.156Z,100568.69
2023-05-01T08:16:55.646Z,100568.34
2023-05-01T08:19:58.603Z,100568.88
2023-05-01T08:23:01.677Z,100567.19
2023-05-01T08:26:04.293Z,100584.97
2023-05-01T08:29:06.903Z,100566.38
2023-05-01T08:32:09.630Z,100572.78
2023-05-01T08:35:12.291Z,100556.84
2023-05-01T08:38:14.919Z,100561.72
2023-05-01T08:41:21.552Z,100548.00
2023-05-01T08:44:28.682Z,100569.22
2023-05-01T08:47:31.333Z,100561.50
2023-05-01T08:50:39.038Z,100512.75
2023-05-01T08:53:42.179Z,100551.22
2023-05-01T08:56:46.783Z,100539.19
2023-05-01T08:59:51.207Z,100534.66
2023-05-01T09:02:54.424Z,100543.09
2023-05-01T09:05:57.549Z,100519.91
2023-05-01T09:09:01.559Z,100526.44
2023-05-01T09:12:22.150Z,100548.03
2023-05-01T09:15:27.112Z,100535.41
2023-05-01T09:18:31.385Z,100481.25
2023-05-01T09:21:33.965Z,100548.38
2023-05-01T09:24:36.845Z,100519.53
2023-05-01T09:27:39.502Z,100541.13
2023-05-01T09:30:42.378Z,100529.34
2023-05-01T09:33:58.687Z,100517.25
2023-05-01T09:37:01.321Z,100516.16
2023-05-01T09:40:14.236Z,100515.28
2023-05-01T09:43:35.118Z,100506.47
2023-05-01T09:46:43.076Z,100485.75
2023-05-01T09:49:48.321Z,100518.59
2023-05-01T09:52:52.742Z,100524.50
2023-05-01T09:56:02.303Z,100486.00
2023-05-01T09:59:20.240Z,100494.34
2023-05-01T10:02:32.516Z,100497.03
2023-05-01T10:05:44.719Z,100460.94
2023-05-01T10:08:50.776Z,100494.09
2023-05-01T10:11:59.542Z,100505.41
2023-05-01T10:15:17.379Z,100505.66
2023-05-01T10:18:27.856Z,100507.50
2023-05-01T10:21:32.939Z,100496.47
2023-05-01T10:24:37.270Z,100481.06
2023-05-01T10:27:43.312Z,100460.31
2023-05-01T10:30:46.036Z,100480.66
2023-05-01T10:33:48.749Z,100486.81
2023-05-01T10:36:57.657Z,100479.41
2023-05-01T10:40:00.449Z,100484.16
2023-05-01T10:43:28.994Z,100489.28
2023-05-01T10:46:31.967Z,100479.91
2023-05-01T10:50:09.779Z,100476.97
2023-05-01T10:53:12.472Z,100479.09
2023-05-01T10:56:38.280Z,100479.28
2023-05-01T10:59:59.252Z,100474.72
2023-05-01T11:03:23.640Z,100470.91
2023-05-01T11:06:26.759Z,100468.50
2023-05-01T11:09:55.951Z,100419.44
2023-05-01T11:12:58.892Z,100462.53
2023-05-01T11:16:27.645Z,100467.78
2023-05-01T11:19:36.413Z,100458.69
2023-05-01T11:22:49.108Z,100457.31
2023-05-01T11:26:03.761Z,100454.00
2023-05-01T11:29:07.422Z,100446.00
2023-05-01T11:32:10.988Z,100397.56
2023-05-01T11:35:27.362Z,100443.19
2023-05-01T11:38:29.974Z,100391.63
2023-05-01T11:41:32.565Z,100434.56
2023-05-01T11:44:35.216Z,100430.22
2023-05-01T11:47:41.513Z,100425.31
2023-05-01T11:50:44.239Z,100415.75
2023-05-01T11:54:03.282Z,100420.56
2023-05-01T11:57:05.840Z,100411.78
2023-05-01T12:00:10.161Z,100400.13
2023-05-01T12:03:15.701Z,100403.78
2023-05-01T12:06:18.579Z,100402.97
2023-05-01T12:09:23.125Z,100382.56
2023-05-01T12:12:26.566Z,100397.34
2023-05-01T12:15:29.372Z,100394.69
2023-05-01T12:18:32.064Z,100379.84
2023-05-01T12:21:36.768Z,100365.50
2023-05-01T12:24:48.520Z,100363.63
2023-05-01T12:27:51.085Z,100368.66
2023-05-01T12:30:57.795Z,100361.03
2023-05-01T12:34:02.695Z,100354.16
2023-05-01T12:37:05.569Z,100357.97
2023-05-01T12:40:13.891Z,100347.78
2023-05-01T12:43:16.862Z,100356.13
2023-05-01T12:46:19.469Z,100352.59
2023-05-01T12:49:23.332Z,100346.13
2023-05-01T12:52:27.813Z,100342.31
2023-05-01T12:55:30.576Z,100321.06
2023-05-01T12:58:39.229Z,100318.59
2023-05-01T13:01:41.891Z,100301.91
2023-05-01T13:04:45.331Z,100335.63
2023-05-01T13:07:49.646Z,100324.59
2023-05-01T13:10:55.284Z,100331.66
2023-05-01T13:14:07.790Z,100326.78
2023-05-01T13:17:11.887Z,100311.09
2023-05-01T13:20:15.649Z,100327.00
2023-05-01T13:23:18.392Z,100329.88
2023-05-01T13:26:33.051Z,100318.53
2023-05-01T13:29:36.440Z,100313.09
2023-05-01T13:32:41.400Z,100303.44
2023-05-01T13:35:44.026Z,100304.22
2023-05-01T13:38:50.231Z,100302.88
2023-05-01T13:41:53.516Z,100267.81
2023-05-01T13:44:57.672Z,100297.31
2023-05-01T13:48:00.331Z,100251.63
2023-05-01T13:51:03.045Z,100276.81
2023-05-01T13:54:07.651Z,100284.56
2023-05-01T13:57:10.785Z,100246.31
2023-05-01T14:00:17.888Z,100262.47
2023-05-01T14:03:21.083Z,100282.09
2023-05-01T14:06:26.461Z,100258.53
2023-05-01T14:09:29.320Z,100263.78
2023-05-01T14:12:32.767Z,100271.25
2023-05-01T14:15:35.562Z,100270.44
2023-05-01T14:18:45.922Z,100257.88
2023-05-01T14:21:48.593Z,100243.00
2023-05-01T14:24:51.273Z,100242.50
2023-05-01T14:27:55.084Z,100250.16
2023-05-01T14:30:57.833Z,100236.78
2023-05-01T14:34:03.001Z,100241.97
2023-05-01T14:37:05.859Z,100237.22
2023-05-01T14:40:15.196Z,100231.91
2023-05-01T14:43:19.568Z,100236.91
2023-05-01T14:46:31.513Z,100229.22
2023-05-01T14:49:34.473Z,100216.00
2023-05-01T14:52:37.203Z,100222.00
2023-05-01T14:55:41.492Z,100221.03
2023-05-01T14:58:44.122Z,100203.16
2023-05-01T15:01:46.741Z,100213.22
2023-05-01T15:04:49.370Z,100218.94
2023-05-01T15:07:57.811Z,100222.56
2023-05-01T15:11:00.778Z,100169.44
2023-05-01T15:14:04.249Z,100194.03
2023-05-01T15:17:06.976Z,100174.75
2023-05-01T15:20:10.751Z,100207.22
2023-05-01T15:23:13.321Z,100206.16
2023-05-01T15:26:16.965Z,100205.38
2023-05-01T15:29:19.683Z,100201.94
2023-05-01T15:32:22.417Z,100172.06
2023-05-01T15:35:26.236Z,100199.03
2023-05-01T15:38:28.841Z,100145.38
2023-05-01T15:41:31.485Z,100191.97
2023-05-01T15:44:34.068Z,100157.78
2023-05-01T15:47:36.840Z,100199.66
2023-05-01T15:50:39.694Z,100198.72
2023-05-01T15:53:42.484Z,100150.63
2023-05-01T15:56:45.539Z,100201.28
2023-05-01T15:59:51.434Z,100178.16
2023-05-01T16:02:54.073Z,100195.53
2023-05-01T16:05:57.387Z,100143.19
2023-05-01T16:09:00.288Z,100178.59
2023-05-01T16:12:03.521Z,100191.72
2023-05-01T16:15:06.565Z,100190.56
2023-05-01T16:18:10.179Z,100162.91
2023-05-01T16:21:19.178Z,100173.47
2023-05-01T16:24:22.430Z,100157.28
2023-05-01T16:27:25.063Z,100168.22
2023-05-01T16:30:28.345Z,100151.97
2023-05-01T16:33:32.427Z,100133.38
2023-05-01T16:36:36.884Z,100161.28
2023-05-01T16:39:39.451Z,100158.53
2023-05-01T16:42:42.562Z,100105.28
2023-05-01T16:45:46.737Z,100164.56
2023-05-01T16:48:49.404Z,100156.88
2023-05-01T16:51:56.748Z,100134.06
2023-05-01T16:54:59.620Z,100163.88
2023-05-01T16:58:02.238Z,100156.03
2023-05-01T17:01:04.925Z,100146.34
2023-05-01T17:04:08.262Z,100114.34
2023-05-01T17:07:11.189Z,100143.13
2023-05-01T17:10:13.740Z,100157.59
2023-05-01T17:13:16.583Z,100148.66
2023-05-01T17:16:19.732Z,100155.56
2023-05-01T17:19:22.505Z,100132.53
2023-05-01T17:22:26.659Z,100157.50
2023-05-01T17:25:30.476Z,100151.91
2023-05-01T17:28:33.119Z,100151.66
2023-05-01T17:31:36.586Z,100108.31
2023-05-01T17:34:39.245Z,100156.75
2023-05-01T17:37:41.830Z,100144.22
2023-05-01T17:40:44.883Z,100149.09
2023-05-01T17:43:47.709Z,100147.78
2023-05-01T17:46:50.322Z,100149.66
2023-05-01T17:49:53.097Z,100130.00
2023-05-01T17:52:56.748Z,100149.34
2023-05-01T17:55:59.326Z,100141.50
2023-05-01T17:59:01.986Z,100161.63
2023-05-01T18:02:04.929Z,100162.63
2023-05-01T18:05:08.033Z,100166.31
2023-05-01T18:08:10.997Z,100141.50
2023-05-01T18:11:13.675Z,100163.78
2023-05-01T18:14:16.887Z,100147.44
2023-05-01T18:17:22.381Z,100154.91
2023-05-01T18:20:25.727Z,100164.00
2023-05-01T18:23:28.447Z,100114.47
2023-05-01T18:26:31.330Z,100160.41
2023-05-01T18:29:33.926Z,100160.66
2023-05-01T18:32:47.664Z,100165.63
2023-05-01T18:35:51.782Z,100175.72
2023-05-01T18:38:55.245Z,100179.88
2023-05-01T18:41:57.873Z,100183.53
2023-05-01T18:45:00.567Z,100178.13
2023-05-01T18:48:03.914Z,100174.19
2023-05-01T18:51:08.859Z,100173.31
2023-05-01T18:54:14.075Z,100166.53
2023-05-01T18:57:17.333Z,100189.91
2023-05-01T19:00:21.602Z,100180.81
2023-05-01T19:03:24.465Z,100185.94
2023-05-01T19:06:27.600Z,100162.09
2023-05-01T19:09:30.422Z,100193.84
2023-05-01T19:12:33.078Z,100192.75
2023-05-01T19:15:36.383Z,100175.19
2023-05-01T19:18:39.257Z,100191.00
2023-05-01T19:21:42.182Z,100180.53
2023-05-01T19:24:44.997Z,100189.84
2023-05-01T19:27:47.954Z,100195.84
2023-05-01T19:30:50.860Z,100198.75
2023-05-01T19:33:56.815Z,100192.28
2023-05-01T19:37:02.066Z,100167.50
2023-05-01T19:40:06.483Z,100190.09
2023-05-01T19:43:09.345Z,100204.72
2023-05-01T19:46:12.277Z,100208.69
2023-05-01T19:49:15.091Z,100181.34
2023-05-01T19:52:17.875Z,100205.19
2023-05-01T19:55:20.673Z,100190.34
2023-05-01T19:58:23.687Z,100184.75
2023-05-01T20:01:26.480Z,100133.44
2023-05-01T20:04:29.302Z,100210.06
2023-05-01T20:07:32.164Z,100198.34
2023-05-01T20:10:34.770Z,100187.81
2023-05-01T20:13:37.457Z,100198.63
2023-05-01T20:16:40.552Z,100195.97
2023-05-01T20:19:43.349Z,100193.13
2023-05-01T20:22:46.875Z,100201.13
2023-05-01T20:25:51.898Z,100201.88
2023-05-01T20:28:54.776Z,100183.84
2023-05-01T20:31:59.192Z,100203.41
2023-05-01T20:35:01.885Z,100183.59
2023-05-01T20:38:07.300Z,100210.38
2023-05-01T20:41:10.380Z,100206.47
2023-05-01T20:44:13.008Z,100185.44
2023-05-01T20:47:15.588Z,100205.81
2023-05-01T20:50:18.252Z,100201.00
2023-05-01T20:53:20.925Z,100189.88
2023-05-01T20:56:23.967Z,100206.63
2023-05-01T20:59:26.562Z,100186.28
2023-05-01T21:02:29.397Z,100198.72
2023-05-01T21:05:32.116Z,100193.47
2023-05-01T21:08:34.814Z,100199.09
2023-05-01T21:11:40.220Z,100210.00
2023-05-01T21:14:42.849Z,100207.75
2023-05-01T21:17:45.566Z,100214.59
2023-05-01T21:20:48.961Z,100222.84
2023-05-01T21:23:51.678Z,100219.50
2023-05-01T21:26:54.844Z,100226.44
2023-05-01T21:29:59.676Z,100220.19
2023-05-01T21:33:05.834Z,100181.75
2023-05-01T21:36:10.491Z,100217.78
2023-05-01T21:39:13.091Z,100219.41
2023-05-01T21:42:16.013Z,100215.09
2023-05-01T21:45:20.284Z,100224.06
2023-05-01T21:48:23.030Z,100226.81
2023-05-01T21:51:29.744Z,100230.16
2023-05-01T21:54:34.845Z,100223.28
2023-05-01T21:57:38.904Z,100216.53
2023-05-01T22:00:41.913Z,100218.16
2023-05-01T22:03:46.536Z,100226.16
2023-05-01T22:06:50.058Z,100233.72
2023-05-01T22:09:52.895Z,100202.72
2023-05-01T22:12:55.656Z,100212.19
2023-05-01T22:15:58.218Z,100213.91
2023-05-01T22:19:00.839Z,100206.94
2023-05-01T22:22:03.529Z,100230.56
2023-05-01T22:25:07.079Z,100233.22
2023-05-01T22:28:09.797Z,100208.13
2023-05-01T22:31:12.374Z,100230.06
2023-05-01T22:34:15.003Z,100215.50
2023-05-01T22:37:19.089Z,100237.59
2023-05-01T22:40:21.869Z,100220.84
2023-05-01T22:43:24.803Z,100184.91
2023-05-01T22:46:27.445Z,100218.34
2023-05-01T22:49:30.338Z,100213.41
2023-05-01T22:52:32.981Z,100238.72
2023-05-01T22:55:35.813Z,100240.03
2023-05-01T22:58:38.681Z,100221.44
2023-05-01T23:01:41.363Z,100227.50
2023-05-01T23:04:44.337Z,100221.72
2023-05-01T23:07:46.961Z,100226.75
2023-05-01T23:10:49.591Z,100209.13
2023-05-01T23:13:52.438Z,100223.34
2023-05-01T23:16:55.236Z,100227.28
2023-05-01T23:19:58.945Z,100221.19
2023-05-01T23:23:05.366Z,100200.38
2023-05-01T23:26:07.892Z,100164.28
2023-05-01T23:29:11.710Z,100206.63
2023-05-01T23:32:30.210Z,100216.97
2023-05-01T23:35:32.857Z,100191.22
2023-05-01T23:38:35.464Z,100203.28
2023-05-01T23:41:38.160Z,100201.78
2023-05-01T23:44:40.920Z,100211.50
2023-05-01T23:47:43.563Z,100217.78
2023-05-01T23:50:46.383Z,100174.63
2023-05-01T23:53:49.138Z,100215.22
2023-05-01T23:56:51.974Z,100168.78
2023-05-01T23:59:54.604Z,100200.53
